sensor_id;sensor_type;location;lat;lon;timestamp;pressure;altitude;pressure_sealevel;temperature;humidity
13068;BME280;6600;51.362;6.686;2023-02-16T00:00:06;102071.97;;;5.52;100.00
13068;BME280;6600;51.362;6.686;2023-02-16T00:02:32;102067.94;;;5.48;100.00
13068;BME280;6600;51.362;6.686;2023-02-16T00:04:57;102073.25;;;5.48;100.00
13068;BME280;6600;51.362;6.686;2023-02-16T00:07:22;102073.03;;;5.42;100.00
13068;BME280;6600;51.362;6.686;2023-02-16T00:09:47;102075.31;;;5.37;100.00
13068;BME280;6600;51.362;6.686;2023-02-16T00:12:17;102079.78;;;5.36;100.00
13068;BME280;6600;51.362;6.686;2023-02-16T00:15:15;102068.63;;;5.33;100.00
13068;BME280;6600;51.362;6.686;2023-02-16T00:17:42;102084.63;;;5.23;100.00
13068;BME280;6600;51.362;6.686;2023-02-16T00:20:15;102078.28;;;5.24;100.00
13068;BME280;6600;51.362;6.686;2023-02-16T00:22:40;102061.97;;;5.19;100.00
13068;BME280;6600;51.362;6.686;2023-02-16T00:25:06;102056.34;;;5.22;100.00
13068;BME280;6600;51.362;6.686;2023-02-16T00:27:33;102062.66;;;5.21;100.00
13068;BME280;6600;51.362;6.686;2023-02-16T00:29:59;102069.78;;;5.21;100.00
13068;BME280;6600;51.362;6.686;2023-02-16T00:32:24;102068.97;;;5.20;100.00
13068;BME280;6600;51.362;6.686;2023-02-16T00:34:49;102063.94;;;5.17;100.00
13068;BME280;6600;51.362;6.686;2023-02-16T00:37:15;102059.91;;;5.13;100.00
13068;BME280;6600;51.362;6.686;2023-02-16T00:39:41;102060.59;;;5.15;100.00
13068;BME280;6600;51.362;6.686;2023-02-16T00:42:21;102057.25;;;5.13;100.00
13068;BME280;6600;51.362;6.686;2023-02-16T00:44:53;102051.66;;;5.16;100.00
13068;BME280;6600;51.362;6.686;2023-02-16T00:49:52;102042.69;;;5.17;100.00
13068;BME280;6600;51.362;6.686;2023-02-16T00:52:36;102044.94;;;5.12;100.00
13068;BME280;6600;51.362;6.686;2023-02-16T00:55:05;102054.50;;;5.05;100.00
13068;BME280;6600;51.362;6.686;2023-02-16T00:57:35;102051.97;;;5.03;100.00
13068;BME280;6600;51.362;6.686;2023-02-16T01:02:37;102052.25;;;5.00;100.00
13068;BME280;6600;51.362;6.686;2023-02-16T01:05:02;102053.69;;;4.95;100.00
13068;BME280;6600;51.362;6.686;2023-02-16T01:07:28;102052.59;;;4.88;100.00
13068;BME280;6600;51.362;6.686;2023-02-16T01:10:12;102049.28;;;4.86;100.00
13068;BME280;6600;51.362;6.686;2023-02-16T01:12:56;102055.13;;;4.80;100.00
13068;BME280;6600;51.362;6.686;2023-02-16T01:15:23;102042.41;;;4.83;100.00
13068;BME280;6600;51.362;6.686;2023-02-16T01:17:50;102046.19;;;4.81;100.00
13068;BME280;6600;51.362;6.686;2023-02-16T01:20:17;102050.13;;;4.77;100.00
13068;BME280;6600;51.362;6.686;2023-02-16T01:22:43;102046.38;;;4.70;100.00
13068;BME280;6600;51.362;6.686;2023-02-16T01:25:09;102049.31;;;4.67;100.00
13068;BME280;6600;51.362;6.686;2023-02-16T01:27:38;102048.19;;;4.69;100.00
13068;BME280;6600;51.362;6.686;2023-02-16T01:30:12;102047.63;;;4.66;100.00
13068;BME280;6600;51.362;6.686;2023-02-16T01:32:37;102048.50;;;4.56;100.00
13068;BME280;6600;51.362;6.686;2023-02-16T01:35:03;102048.09;;;4.61;100.00
13068;BME280;6600;51.362;6.686;2023-02-16T01:37:28;102033.72;;;4.54;100.00
13068;BME280;6600;51.362;6.686;2023-02-16T01:39:54;102030.78;;;4.57;100.00
13068;BME280;6600;51.362;6.686;2023-02-16T01:42:33;102030.91;;;4.65;100.00
13068;BME280;6600;51.362;6.686;2023-02-16T01:45:07;102031.44;;;4.69;100.00
13068;BME280;6600;51.362;6.686;2023-02-16T01:47:44;102035.38;;;4.65;100.00
13068;BME280;6600;51.362;6.686;2023-02-16T01:51:01;102030.34;;;4.62;100.00
13068;BME280;6600;51.362;6.686;2023-02-16T01:53:44;102037.91;;;4.56;100.00
13068;BME280;6600;51.362;6.686;2023-02-16T01:56:24;102042.38;;;4.56;100.00
13068;BME280;6600;51.362;6.686;2023-02-16T01:58:54;102037.50;;;4.51;100.00
13068;BME280;6600;51.362;6.686;2023-02-16T02:01:43;102039.03;;;4.54;100.00
13068;BME280;6600;51.362;6.686;2023-02-16T02:04:18;102040.72;;;4.45;100.00
13068;BME280;6600;51.362;6.686;2023-02-16T02:07:03;102044.63;;;4.41;100.00
13068;BME280;6600;51.362;6.686;2023-02-16T02:09:38;102032.38;;;4.40;100.00
13068;BME280;6600;51.362;6.686;2023-02-16T02:12:22;102028.44;;;4.44;100.00
13068;BME280;6600;51.362;6.686;2023-02-16T02:14:51;102025.13;;;4.33;100.00
13068;BME280;6600;51.362;6.686;2023-02-16T02:17:19;102028.19;;;4.28;100.00
13068;BME280;6600;51.362;6.686;2023-02-16T02:23:15;102021.47;;;4.24;100.00
13068;BME280;6600;51.362;6.686;2023-02-16T02:26:18;102022.19;;;4.26;100.00
13068;BME280;6600;51.362;6.686;2023-02-16T02:37:02;102008.06;;;4.35;100.00
13068;BME280;6600;51.362;6.686;2023-02-16T02:39:49;102003.59;;;4.36;100.00
13068;BME280;6600;51.362;6.686;2023-02-16T02:44:57;101999.50;;;4.41;100.00
13068;BME280;6600;51.362;6.686;2023-02-16T02:47:43;101997.16;;;4.38;100.00
13068;BME280;6600;51.362;6.686;2023-02-16T02:50:39;101991.28;;;4.44;100.00
13068;BME280;6600;51.362;6.686;2023-02-16T02:53:12;101990.19;;;4.37;100.00
13068;BME280;6600;51.362;6.686;2023-02-16T02:55:43;101984.88;;;4.37;100.00
13068;BME280;6600;51.362;6.686;2023-02-16T02:58:30;101981.53;;;4.35;100.00
13068;BME280;6600;51.362;6.686;2023-02-16T03:01:17;101980.84;;;4.33;100.00
13068;BME280;6600;51.362;6.686;2023-02-16T03:03:46;101972.03;;;4.33;100.00
13068;BME280;6600;51.362;6.686;2023-02-16T03:06:23;101971.50;;;4.29;100.00
13068;BME280;6600;51.362;6.686;2023-02-16T03:08:54;101967.28;;;4.36;100.00
13068;BME280;6600;51.362;6.686;2023-02-16T03:11:25;101967.03;;;4.30;100.00
13068;BME280;6600;51.362;6.686;2023-02-16T03:14:21;101968.56;;;4.32;100.00
13068;BME280;6600;51.362;6.686;2023-02-16T03:16:56;101964.09;;;4.33;100.00
13068;BME280;6600;51.362;6.686;2023-02-16T03:19:42;101960.59;;;4.32;100.00
13068;BME280;6600;51.362;6.686;2023-02-16T03:22:27;101965.34;;;4.29;100.00
13068;BME280;6600;51.362;6.686;2023-02-16T03:25:12;101958.22;;;4.29;100.00
13068;BME280;6600;51.362;6.686;2023-02-16T03:27:57;101951.09;;;4.30;100.00
13068;BME280;6600;51.362;6.686;2023-02-16T03:30:44;101963.13;;;4.24;100.00
13068;BME280;6600;51.362;6.686;2023-02-16T03:33:10;101962.31;;;4.24;100.00
13068;BME280;6600;51.362;6.686;2023-02-16T03:35:36;101950.28;;;4.29;100.00
13068;BME280;6600;51.362;6.686;2023-02-16T03:38:01;101961.47;;;4.23;100.00
13068;BME280;6600;51.362;6.686;2023-02-16T03:40:27;101965.50;;;4.27;100.00
13068;BME280;6600;51.362;6.686;2023-02-16T03:43:06;101955.88;;;4.26;100.00
13068;BME280;6600;51.362;6.686;2023-02-16T03:45:35;101958.66;;;4.25;100.00
13068;BME280;6600;51.362;6.686;2023-02-16T03:48:01;101972.38;;;4.20;100.00
13068;BME280;6600;51.362;6.686;2023-02-16T03:50:27;101968.41;;;4.24;100.00
13068;BME280;6600;51.362;6.686;2023-02-16T03:52:54;101969.53;;;4.31;100.00
13068;BME280;6600;51.362;6.686;2023-02-16T03:55:34;101964.78;;;4.25;100.00
13068;BME280;6600;51.362;6.686;2023-02-16T03:58:00;101971.78;;;4.26;100.00
13068;BME280;6600;51.362;6.686;2023-02-16T04:00:26;101963.13;;;4.24;100.00
13068;BME280;6600;51.362;6.686;2023-02-16T04:02:52;101956.16;;;4.23;100.00
13068;BME280;6600;51.362;6.686;2023-02-16T04:05:17;101961.75;;;4.20;100.00
13068;BME280;6600;51.362;6.686;2023-02-16T04:07:42;101952.78;;;4.21;100.00
13068;BME280;6600;51.362;6.686;2023-02-16T04:10:08;101957.56;;;4.27;100.00
13068;BME280;6600;51.362;6.686;2023-02-16T04:12:33;101958.66;;;4.25;100.00
13068;BME280;6600;51.362;6.686;2023-02-16T04:15:12;101959.50;;;4.25;100.00
13068;BME280;6600;51.362;6.686;2023-02-16T04:17:38;101959.22;;;4.19;100.00
13068;BME280;6600;51.362;6.686;2023-02-16T04:20:04;101953.38;;;4.15;100.00
13068;BME280;6600;51.362;6.686;2023-02-16T04:22:30;101958.97;;;4.12;100.00
13068;BME280;6600;51.362;6.686;2023-02-16T04:24:55;101960.78;;;4.12;100.00
13068;BME280;6600;51.362;6.686;2023-02-16T04:27:21;101957.88;;;4.05;100.00
13068;BME280;6600;51.362;6.686;2023-02-16T04:29:46;101955.09;;;4.06;100.00
13068;BME280;6600;51.362;6.686;2023-02-16T04:32:11;101961.22;;;4.07;100.00
13068;BME280;6600;51.362;6.686;2023-02-16T04:34:37;101961.91;;;4.09;100.00
13068;BME280;6600;51.362;6.686;2023-02-16T04:37:02;101966.94;;;4.12;100.00
13068;BME280;6600;51.362;6.686;2023-02-16T04:39:27;101964.28;;;4.12;100.00
13068;BME280;6600;51.362;6.686;2023-02-16T04:41:53;101967.63;;;4.14;100.00
13068;BME280;6600;51.362;6.686;2023-02-16T04:44:18;101972.91;;;4.14;100.00
13068;BME280;6600;51.362;6.686;2023-02-16T04:46:43;101973.75;;;4.15;100.00
13068;BME280;6600;51.362;6.686;2023-02-16T04:49:09;101967.22;;;4.09;100.00
13068;BME280;6600;51.362;6.686;2023-02-16T04:51:34;101959.84;;;4.03;100.00
13068;BME280;6600;51.362;6.686;2023-02-16T04:53:59;101955.66;;;4.10;100.00
13068;BME280;6600;51.362;6.686;2023-02-16T04:56:25;101957.00;;;4.14;100.00
13068;BME280;6600;51.362;6.686;2023-02-16T04:58:50;101959.69;;;4.04;100.00
13068;BME280;6600;51.362;6.686;2023-02-16T05:01:20;101962.88;;;4.08;100.00
13068;BME280;6600;51.362;6.686;2023-02-16T05:03:46;101965.16;;;4.03;100.00
13068;BME280;6600;51.362;6.686;2023-02-16T05:06:12;101968.06;;;4.00;100.00
13068;BME280;6600;51.362;6.686;2023-02-16T05:08:37;101959.84;;;4.03;100.00
13068;BME280;6600;51.362;6.686;2023-02-16T05:11:03;101955.34;;;4.13;100.00
13068;BME280;6600;51.362;6.686;2023-02-16T05:13:46;101948.91;;;4.16;100.00
13068;BME280;6600;51.362;6.686;2023-02-16T05:16:30;101954.34;;;4.14;100.00
13068;BME280;6600;51.362;6.686;2023-02-16T05:18:55;101958.00;;;4.13;100.00
13068;BME280;6600;51.362;6.686;2023-02-16T05:21:21;101963.03;;;4.16;100.00
13068;BME280;6600;51.362;6.686;2023-02-16T05:24:00;101955.34;;;4.13;100.00
13068;BME280;6600;51.362;6.686;2023-02-16T05:26:26;101968.59;;;4.23;100.00
13068;BME280;6600;51.362;6.686;2023-02-16T05:28:52;101961.56;;;4.31;100.00
13068;BME280;6600;51.362;6.686;2023-02-16T05:31:18;101969.94;;;4.36;100.00
13068;BME280;6600;51.362;6.686;2023-02-16T05:33:43;101972.00;;;4.42;100.00
13068;BME280;6600;51.362;6.686;2023-02-16T05:36:09;101967.00;;;4.39;100.00
13068;BME280;6600;51.362;6.686;2023-02-16T05:38:34;101972.00;;;4.42;100.00
13068;BME280;6600;51.362;6.686;2023-02-16T05:40:59;101984.00;;;4.46;100.00
13068;BME280;6600;51.362;6.686;2023-02-16T05:43:25;101975.06;;;4.47;100.00
13068;BME280;6600;51.362;6.686;2023-02-16T05:45:50;101971.03;;;4.43;100.00
13068;BME280;6600;51.362;6.686;2023-02-16T05:48:16;101965.56;;;4.45;100.00
13068;BME280;6600;51.362;6.686;2023-02-16T05:50:41;101963.06;;;4.43;100.00
13068;BME280;6600;51.362;6.686;2023-02-16T05:53:06;101963.63;;;4.47;100.00
13068;BME280;6600;51.362;6.686;2023-02-16T05:55:31;101974.19;;;4.56;100.00
13068;BME280;6600;51.362;6.686;2023-02-16T05:57:57;101975.47;;;4.52;100.00
13068;BME280;6600;51.362;6.686;2023-02-16T06:00:22;101971.09;;;4.61;100.00
13068;BME280;6600;51.362;6.686;2023-02-16T06:02:48;101961.34;;;4.62;100.00
13068;BME280;6600;51.362;6.686;2023-02-16T06:05:13;101957.09;;;4.69;100.00
13068;BME280;6600;51.362;6.686;2023-02-16T06:07:39;101948.75;;;4.64;100.00
13068;BME280;6600;51.362;6.686;2023-02-16T06:10:04;101948.69;;;4.73;100.00
13068;BME280;6600;51.362;6.686;2023-02-16T06:12:30;101951.50;;;4.72;100.00
13068;BME280;6600;51.362;6.686;2023-02-16T06:14:57;101955.13;;;4.71;100.00
13068;BME280;6600;51.362;6.686;2023-02-16T06:17:22;101957.38;;;4.66;100.00
13068;BME280;6600;51.362;6.686;2023-02-16T06:19:47;101969.69;;;4.67;100.00
13068;BME280;6600;51.362;6.686;2023-02-16T06:22:13;101959.47;;;4.72;100.00
13068;BME280;6600;51.362;6.686;2023-02-16T06:24:38;101949.53;;;4.74;100.00
13068;BME280;6600;51.362;6.686;2023-02-16T06:27:03;101948.94;;;4.80;100.00
13068;BME280;6600;51.362;6.686;2023-02-16T06:29:29;101953.56;;;4.78;100.00
13068;BME280;6600;51.362;6.686;2023-02-16T06:31:54;101953.16;;;4.73;100.00
13068;BME280;6600;51.362;6.686;2023-02-16T06:34:20;101954.84;;;4.74;100.00
13068;BME280;6600;51.362;6.686;2023-02-16T06:36:45;101953.16;;;4.73;100.00
13068;BME280;6600;51.362;6.686;2023-02-16T06:39:11;101955.13;;;4.71;100.00
13068;BME280;6600;51.362;6.686;2023-02-16T06:41:36;101967.44;;;4.72;100.00
13068;BME280;6600;51.362;6.686;2023-02-16T06:44:09;101961.53;;;4.78;100.00
13068;BME280;6600;51.362;6.686;2023-02-16T06:46:39;101967.13;;;4.75;100.00
13068;BME280;6600;51.362;6.686;2023-02-16T06:49:04;101969.25;;;4.71;100.00
13068;BME280;6600;51.362;6.686;2023-02-16T06:51:30;101975.78;;;4.77;100.00
13068;BME280;6600;51.362;6.686;2023-02-16T06:53:55;101964.84;;;4.80;100.00
13068;BME280;6600;51.362;6.686;2023-02-16T06:56:21;101957.00;;;4.88;100.00
13068;BME280;6600;51.362;6.686;2023-02-16T06:58:46;101950.41;;;4.92;100.00
13068;BME280;6600;51.362;6.686;2023-02-16T07:01:12;101958.06;;;4.95;100.00
13068;BME280;6600;51.362;6.686;2023-02-16T07:03:37;101954.44;;;4.96;100.00
13068;BME280;6600;51.362;6.686;2023-02-16T07:06:02;101954.16;;;4.99;100.00
13068;BME280;6600;51.362;6.686;2023-02-16T07:08:28;101952.47;;;4.98;100.00
13068;BME280;6600;51.362;6.686;2023-02-16T07:10:53;101950.41;;;4.92;100.00
13068;BME280;6600;51.362;6.686;2023-02-16T07:13:19;101959.47;;;4.99;100.00
13068;BME280;6600;51.362;6.686;2023-02-16T07:15:45;101957.47;;;5.01;100.00
13068;BME280;6600;51.362;6.686;2023-02-16T07:18:10;101961.38;;;5.06;100.00
13068;BME280;6600;51.362;6.686;2023-02-16T07:20:36;101952.16;;;5.01;100.00
13068;BME280;6600;51.362;6.686;2023-02-16T07:23:02;101957.88;;;5.06;100.00
13068;BME280;6600;51.362;6.686;2023-02-16T07:25:27;101959.53;;;5.07;100.00
13068;BME280;6600;51.362;6.686;2023-02-16T07:27:53;101961.91;;;5.10;100.00
13068;BME280;6600;51.362;6.686;2023-02-16T07:30:19;101965.66;;;5.17;100.00
13068;BME280;6600;51.362;6.686;2023-02-16T07:32:45;101972.59;;;5.18;100.00
13068;BME280;6600;51.362;6.686;2023-02-16T07:35:10;101964.88;;;5.25;100.00
13068;BME280;6600;51.362;6.686;2023-02-16T07:37:36;101972.16;;;5.23;100.00
13068;BME280;6600;51.362;6.686;2023-02-16T07:40:01;101980.50;;;5.28;100.00
13068;BME280;6600;51.362;6.686;2023-02-16T07:42:31;101968.47;;;5.33;100.00
13068;BME280;6600;51.362;6.686;2023-02-16T07:44:57;101961.47;;;5.32;100.00
13068;BME280;6600;51.362;6.686;2023-02-16T07:47:22;101962.53;;;5.39;100.00
13068;BME280;6600;51.362;6.686;2023-02-16T07:49:48;101977.19;;;5.43;100.00
13068;BME280;6600;51.362;6.686;2023-02-16T07:52:13;101977.56;;;5.48;100.00
13068;BME280;6600;51.362;6.686;2023-02-16T07:54:38;101974.16;;;5.56;100.00
13068;BME280;6600;51.362;6.686;2023-02-16T07:57:04;101978.31;;;5.58;100.00
13068;BME280;6600;51.362;6.686;2023-02-16T07:59:29;101987.22;;;5.67;100.00
13068;BME280;6600;51.362;6.686;2023-02-16T08:01:54;101983.81;;;5.75;100.00
13068;BME280;6600;51.362;6.686;2023-02-16T08:04:20;101990.00;;;5.83;100.00
13068;BME280;6600;51.362;6.686;2023-02-16T08:06:45;101984.56;;;5.85;100.00
13068;BME280;6600;51.362;6.686;2023-02-16T08:09:13;101983.59;;;5.86;100.00
13068;BME280;6600;51.362;6.686;2023-02-16T08:11:38;101989.19;;;6.00;100.00
13068;BME280;6600;51.362;6.686;2023-02-16T08:14:03;101985.00;;;5.98;100.00
13068;BME280;6600;51.362;6.686;2023-02-16T08:16:29;101979.16;;;5.94;100.00
13068;BME280;6600;51.362;6.686;2023-02-16T08:18:55;101986.00;;;5.97;100.00
13068;BME280;6600;51.362;6.686;2023-02-16T08:21:23;101990.34;;;5.98;100.00
13068;BME280;6600;51.362;6.686;2023-02-16T08:24:06;102000.75;;;6.09;100.00
13068;BME280;6600;51.362;6.686;2023-02-16T08:26:38;102002.25;;;6.12;100.00
13068;BME280;6600;51.362;6.686;2023-02-16T08:29:05;101989.00;;;6.20;100.00
13068;BME280;6600;51.362;6.686;2023-02-16T08:31:33;101997.50;;;6.23;100.00
13068;BME280;6600;51.362;6.686;2023-02-16T08:34:00;101996.75;;;6.31;100.00
13068;BME280;6600;51.362;6.686;2023-02-16T08:36:29;102000.47;;;6.46;100.00
13068;BME280;6600;51.362;6.686;2023-02-16T08:38:57;101991.06;;;6.59;100.00
13068;BME280;6600;51.362;6.686;2023-02-16T08:41:28;101983.66;;;6.79;100.00
13068;BME280;6600;51.362;6.686;2023-02-16T08:43:54;101996.88;;;6.89;100.00
13068;BME280;6600;51.362;6.686;2023-02-16T08:46:19;101986.41;;;6.95;99.64
13068;BME280;6600;51.362;6.686;2023-02-16T08:48:45;101984.94;;;7.01;99.66
13068;BME280;6600;51.362;6.686;2023-02-16T08:51:16;101985.63;;;7.11;99.13
13068;BME280;6600;51.362;6.686;2023-02-16T08:53:45;101984.00;;;7.26;98.15
13068;BME280;6600;51.362;6.686;2023-02-16T08:56:11;101990.38;;;7.33;97.97
13068;BME280;6600;51.362;6.686;2023-02-16T08:58:37;101983.34;;;7.32;96.86
13068;BME280;6600;51.362;6.686;2023-02-16T09:01:04;101982.69;;;7.38;97.08
13068;BME280;6600;51.362;6.686;2023-02-16T09:03:30;101976.34;;;7.31;97.51
13068;BME280;6600;51.362;6.686;2023-02-16T09:06:00;101977.88;;;7.42;96.95
13068;BME280;6600;51.362;6.686;2023-02-16T09:08:26;101977.69;;;7.35;96.49
13068;BME280;6600;51.362;6.686;2023-02-16T09:10:52;101981.00;;;7.29;96.60
13068;BME280;6600;51.362;6.686;2023-02-16T09:13:18;101975.03;;;7.27;97.12
13068;BME280;6600;51.362;6.686;2023-02-16T09:15:43;101983.03;;;7.35;96.83
13068;BME280;6600;51.362;6.686;2023-02-16T09:18:12;101989.09;;;7.61;96.32
13068;BME280;6600;51.362;6.686;2023-02-16T09:20:40;101997.41;;;7.67;95.70
13068;BME280;6600;51.362;6.686;2023-02-16T09:23:06;102000.41;;;7.63;95.63
13068;BME280;6600;51.362;6.686;2023-02-16T09:25:37;102001.72;;;7.59;95.73
13068;BME280;6600;51.362;6.686;2023-02-16T09:28:04;101998.75;;;7.54;95.17
13068;BME280;6600;51.362;6.686;2023-02-16T09:30:30;101995.56;;;7.51;95.73
13068;BME280;6600;51.362;6.686;2023-02-16T09:32:57;102012.38;;;7.43;96.02
13068;BME280;6600;51.362;6.686;2023-02-16T09:35:23;102002.03;;;7.48;96.30
13068;BME280;6600;51.362;6.686;2023-02-16T09:37:48;102009.38;;;7.46;96.13
13068;BME280;6600;51.362;6.686;2023-02-16T09:40:14;102017.72;;;7.43;96.23
13068;BME280;6600;51.362;6.686;2023-02-16T09:45:38;102025.38;;;7.46;96.41
13068;BME280;6600;51.362;6.686;2023-02-16T09:48:19;102027.06;;;7.47;96.33
13068;BME280;6600;51.362;6.686;2023-02-16T09:50:47;102033.41;;;7.54;96.69
13068;BME280;6600;51.362;6.686;2023-02-16T09:53:35;102034.56;;;7.60;96.80
13068;BME280;6600;51.362;6.686;2023-02-16T09:56:25;102038.09;;;7.60;96.80
13068;BME280;6600;51.362;6.686;2023-02-16T09:59:05;102036.75;;;7.65;96.06
13068;BME280;6600;51.362;6.686;2023-02-16T10:02:32;102041.41;;;7.62;95.82
13068;BME280;6600;51.362;6.686;2023-02-16T10:04:43;102030.41;;;7.57;95.60
13068;BME280;6600;51.362;6.686;2023-02-16T10:07:30;102020.75;;;7.65;95.93
13068;BME280;6600;51.362;6.686;2023-02-16T10:10:00;102017.06;;;7.57;95.62
13068;BME280;6600;51.362;6.686;2023-02-16T10:12:31;102022.06;;;7.52;96.58
13068;BME280;6600;51.362;6.686;2023-02-16T10:15:06;102020.41;;;7.59;96.51
13068;BME280;6600;51.362;6.686;2023-02-16T10:20:10;102013.75;;;7.63;96.44
13068;BME280;6600;51.362;6.686;2023-02-16T10:25:12;102014.25;;;7.67;97.24
13068;BME280;6600;51.362;6.686;2023-02-16T10:27:42;102025.75;;;7.68;97.47
13068;BME280;6600;51.362;6.686;2023-02-16T10:30:18;102014.41;;;7.74;97.47
13068;BME280;6600;51.362;6.686;2023-02-16T10:35:26;102029.13;;;7.86;97.68
13068;BME280;6600;51.362;6.686;2023-02-16T10:40:41;102025.75;;;8.00;97.21
13068;BME280;6600;51.362;6.686;2023-02-16T10:45:52;102017.78;;;8.08;96.99
13068;BME280;6600;51.362;6.686;2023-02-16T10:48:19;102024.09;;;8.15;96.75
13068;BME280;6600;51.362;6.686;2023-02-16T10:50:54;102017.09;;;8.22;96.50
13068;BME280;6600;51.362;6.686;2023-02-16T10:55:57;102013.09;;;8.50;96.66
13068;BME280;6600;51.362;6.686;2023-02-16T10:58:37;102017.03;;;8.62;96.32
13068;BME280;6600;51.362;6.686;2023-02-16T11:01:15;102014.22;;;8.72;96.01
13068;BME280;6600;51.362;6.686;2023-02-16T11:03:48;102019.66;;;8.87;95.74
13068;BME280;6600;51.362;6.686;2023-02-16T11:06:17;102009.97;;;8.86;95.63
13068;BME280;6600;51.362;6.686;2023-02-16T11:08:48;101999.25;;;8.94;94.58
13068;BME280;6600;51.362;6.686;2023-02-16T11:11:15;102002.94;;;8.93;94.43
13068;BME280;6600;51.362;6.686;2023-02-16T11:13:41;101990.88;;;8.97;94.71
13068;BME280;6600;51.362;6.686;2023-02-16T11:16:18;101974.53;;;8.92;94.66
13068;BME280;6600;51.362;6.686;2023-02-16T11:18:46;101974.03;;;8.88;95.31
13068;BME280;6600;51.362;6.686;2023-02-16T11:21:14;101969.69;;;8.87;95.92
13068;BME280;6600;51.362;6.686;2023-02-16T11:23:41;101963.84;;;8.92;96.33
13068;BME280;6600;51.362;6.686;2023-02-16T11:28:47;101964.47;;;9.02;96.95
13068;BME280;6600;51.362;6.686;2023-02-16T11:31:21;101972.78;;;9.07;97.14
13068;BME280;6600;51.362;6.686;2023-02-16T11:36:36;101965.28;;;9.02;97.36
13068;BME280;6600;51.362;6.686;2023-02-16T11:41:47;101965.78;;;9.06;97.67
13068;BME280;6600;51.362;6.686;2023-02-16T11:46:52;101959.13;;;9.02;98.41
13068;BME280;6600;51.362;6.686;2023-02-16T11:49:40;101961.75;;;9.10;99.24
13068;BME280;6600;51.362;6.686;2023-02-16T11:52:26;101948.31;;;9.18;99.64
13068;BME280;6600;51.362;6.686;2023-02-16T11:54:56;101941.28;;;9.17;100.00
13068;BME280;6600;51.362;6.686;2023-02-16T11:57:27;101953.53;;;9.11;100.00
13068;BME280;6600;51.362;6.686;2023-02-16T11:59:55;101951.56;;;9.05;100.00
13068;BME280;6600;51.362;6.686;2023-02-16T12:02:58;101942.50;;;9.14;100.00
13068;BME280;6600;51.362;6.686;2023-02-16T12:11:40;101938.59;;;9.25;100.00
13068;BME280;6600;51.362;6.686;2023-02-16T12:20:08;101947.38;;;9.56;100.00
13068;BME280;6600;51.362;6.686;2023-02-16T12:22:46;101946.78;;;9.69;100.00
13068;BME280;6600;51.362;6.686;2023-02-16T12:25:18;101945.25;;;9.75;100.00
13068;BME280;6600;51.362;6.686;2023-02-16T12:28:19;101943.41;;;9.90;100.00
13068;BME280;6600;51.362;6.686;2023-02-16T12:33:40;101936.56;;;10.10;99.39
13068;BME280;6600;51.362;6.686;2023-02-16T12:39:02;101941.09;;;10.24;99.28
13068;BME280;6600;51.362;6.686;2023-02-16T12:41:46;101936.50;;;10.18;99.57
13068;BME280;6600;51.362;6.686;2023-02-16T12:44:17;101942.41;;;10.28;99.18
13068;BME280;6600;51.362;6.686;2023-02-16T12:46:49;101945.81;;;10.22;99.41
13068;BME280;6600;51.362;6.686;2023-02-16T12:49:25;101944.44;;;10.26;100.00
13068;BME280;6600;51.362;6.686;2023-02-16T12:54:32;101928.75;;;10.23;100.00
13068;BME280;6600;51.362;6.686;2023-02-16T12:57:09;101922.09;;;10.19;100.00
13068;BME280;6600;51.362;6.686;2023-02-16T12:59:49;101914.31;;;10.24;100.00
13068;BME280;6600;51.362;6.686;2023-02-16T13:02:41;101905.66;;;10.22;100.00
13068;BME280;6600;51.362;6.686;2023-02-16T13:05:13;101900.00;;;10.32;100.00
13068;BME280;6600;51.362;6.686;2023-02-16T13:07:44;101907.97;;;10.40;100.00
13068;BME280;6600;51.362;6.686;2023-02-16T13:10:37;101897.34;;;10.46;100.00
13068;BME280;6600;51.362;6.686;2023-02-16T13:13:15;101893.81;;;10.60;100.00
13068;BME280;6600;51.362;6.686;2023-02-16T13:15:47;101890.19;;;10.68;100.00
13068;BME280;6600;51.362;6.686;2023-02-16T13:18:21;101901.00;;;10.75;100.00
13068;BME280;6600;51.362;6.686;2023-02-16T13:20:52;101897.75;;;10.79;100.00
13068;BME280;6600;51.362;6.686;2023-02-16T13:40:35;101859.16;;;10.59;100.00
13068;BME280;6600;51.362;6.686;2023-02-16T13:45:48;101858.59;;;10.49;100.00
13068;BME280;6600;51.362;6.686;2023-02-16T13:51:00;101864.63;;;10.36;100.00
13068;BME280;6600;51.362;6.686;2023-02-16T13:53:32;101861.66;;;10.31;100.00
13068;BME280;6600;51.362;6.686;2023-02-16T13:56:12;101854.47;;;10.32;100.00
13068;BME280;6600;51.362;6.686;2023-02-16T13:58:38;101849.94;;;10.32;100.00
13068;BME280;6600;51.362;6.686;2023-02-16T14:01:38;101835.16;;;10.36;100.00
13068;BME280;6600;51.362;6.686;2023-02-16T14:04:10;101832.94;;;10.54;100.00
13068;BME280;6600;51.362;6.686;2023-02-16T14:06:39;101832.13;;;10.75;100.00
13068;BME280;6600;51.362;6.686;2023-02-16T14:22:18;101800.09;;;11.31;99.53
13068;BME280;6600;51.362;6.686;2023-02-16T14:24:52;101796.41;;;11.38;98.78
13068;BME280;6600;51.362;6.686;2023-02-16T14:27:51;101798.97;;;11.46;99.12
13068;BME280;6600;51.362;6.686;2023-02-16T14:30:35;101792.31;;;11.42;98.59
13068;BME280;6600;51.362;6.686;2023-02-16T14:43:39;101787.72;;;11.36;99.71
13068;BME280;6600;51.362;6.686;2023-02-16T14:59:43;101763.94;;;11.54;99.94
13068;BME280;6600;51.362;6.686;2023-02-16T15:02:31;101760.19;;;11.55;100.00
13068;BME280;6600;51.362;6.686;2023-02-16T15:05:02;101765.13;;;11.52;100.00
13068;BME280;6600;51.362;6.686;2023-02-16T15:07:38;101752.31;;;11.47;100.00
13068;BME280;6600;51.362;6.686;2023-02-16T15:10:03;101745.09;;;11.48;100.00
13068;BME280;6600;51.362;6.686;2023-02-16T15:12:30;101740.31;;;11.43;100.00
13068;BME280;6600;51.362;6.686;2023-02-16T15:14:58;101733.28;;;11.42;100.00
13068;BME280;6600;51.362;6.686;2023-02-16T15:20:12;101732.47;;;11.48;100.00
13068;BME280;6600;51.362;6.686;2023-02-16T15:22:50;101729.56;;;11.43;100.00
13068;BME280;6600;51.362;6.686;2023-02-16T15:25:27;101727.91;;;11.42;100.00
13068;BME280;6600;51.362;6.686;2023-02-16T15:27:59;101741.75;;;11.46;100.00
13068;BME280;6600;51.362;6.686;2023-02-16T15:30:30;101741.19;;;11.50;100.00